createdAt,value
2018-09-17T00:00:02.839Z,13.79
2018-09-17T00:01:02.735Z,13.65
2018-09-17T00:02:02.643Z,13.70
2018-09-17T00:03:02.539Z,13.75
2018-09-17T00:04:02.437Z,13.67
2018-09-17T00:05:02.346Z,13.71
2018-09-17T00:06:02.243Z,13.75
2018-09-17T00:07:02.139Z,13.71
2018-09-17T00:08:02.053Z,13.72
2018-09-17T00:09:01.945Z,13.72
2018-09-17T00:10:01.841Z,13.57
2018-09-17T00:11:01.741Z,13.59
2018-09-17T00:12:01.648Z,13.60
2018-09-17T00:13:01.547Z,13.53
2018-09-17T00:14:01.442Z,13.57
2018-09-17T00:15:01.349Z,13.53
2018-09-17T00:16:01.247Z,13.56
2018-09-17T00:17:01.143Z,13.60
2018-09-17T00:18:01.054Z,13.56
2018-09-17T00:19:00.950Z,13.52
2018-09-17T00:20:00.847Z,13.47
2018-09-17T00:21:00.794Z,13.59
2018-09-17T00:22:00.651Z,13.57
2018-09-17T00:23:00.548Z,13.44
2018-09-17T00:24:00.446Z,13.47
2018-09-17T00:25:00.355Z,13.46
2018-09-17T00:26:00.252Z,13.53
2018-09-17T00:27:00.149Z,13.52
2018-09-17T00:28:00.057Z,13.53
2018-09-17T00:28:59.955Z,13.47
2018-09-17T00:29:59.850Z,13.42
2018-09-17T00:30:59.760Z,13.35
2018-09-17T00:31:59.657Z,13.39
2018-09-17T00:32:59.553Z,13.31
2018-09-17T00:33:59.453Z,13.25
2018-09-17T00:34:59.359Z,13.19
2018-09-17T00:35:59.255Z,13.27
2018-09-17T00:36:59.152Z,13.22
2018-09-17T00:37:59.062Z,13.13
2018-09-17T00:38:58.959Z,13.19
2018-09-17T00:39:58.855Z,13.13
2018-09-17T00:40:58.752Z,13.05
2018-09-17T00:41:58.660Z,13.01
2018-09-17T00:42:58.557Z,12.98
2018-09-17T00:43:58.453Z,12.95
2018-09-17T00:44:58.364Z,12.93
2018-09-17T00:45:58.260Z,12.93
2018-09-17T00:46:58.157Z,12.93
2018-09-17T00:47:58.054Z,12.79
2018-09-17T00:48:57.963Z,12.76
2018-09-17T00:49:57.859Z,12.75
2018-09-17T00:50:57.755Z,12.70
2018-09-17T00:51:57.653Z,12.76
2018-09-17T00:52:57.563Z,12.68
2018-09-17T00:53:57.462Z,12.73
2018-09-17T00:54:57.355Z,12.75
2018-09-17T00:55:57.264Z,12.75
2018-09-17T00:56:57.160Z,12.72
2018-09-17T00:57:57.099Z,12.58
2018-09-17T00:58:56.954Z,12.58
2018-09-17T00:59:56.864Z,12.58
2018-09-17T01:00:56.761Z,12.57
2018-09-17T01:01:56.657Z,12.50
2018-09-17T01:02:56.554Z,12.60
2018-09-17T01:03:56.462Z,12.49
2018-09-17T01:04:56.359Z,12.57
2018-09-17T01:05:56.256Z,12.53
2018-09-17T01:06:56.152Z,12.45
2018-09-17T01:07:56.062Z,12.45
2018-09-17T01:08:55.959Z,12.43
2018-09-17T01:09:55.856Z,12.37
2018-09-17T01:10:55.755Z,12.31
2018-09-17T01:11:55.675Z,12.35
2018-09-17T01:12:55.558Z,12.39
2018-09-17T01:13:55.454Z,12.42
2018-09-17T01:14:55.353Z,12.36
2018-09-17T01:15:55.261Z,12.32
2018-09-17T01:16:55.158Z,12.29
2018-09-17T01:17:55.054Z,12.24
2018-09-17T01:18:54.951Z,12.21
2018-09-17T01:19:54.860Z,12.21
2018-09-17T01:20:55.070Z,12.21
2018-09-17T01:21:54.653Z,12.18
2018-09-17T01:22:54.550Z,12.09
2018-09-17T01:23:54.459Z,12.10
2018-09-17T01:24:54.356Z,12.18
2018-09-17T01:25:54.253Z,12.21
2018-09-17T01:26:54.149Z,12.25
2018-09-17T01:27:54.059Z,12.21
2018-09-17T01:28:53.956Z,12.17
2018-09-17T01:29:53.864Z,12.21
2018-09-17T01:30:53.749Z,12.20
2018-09-17T01:31:53.646Z,12.21
2018-09-17T01:32:53.554Z,12.17
2018-09-17T01:33:53.451Z,12.15
2018-09-17T01:34:53.349Z,12.18
2018-09-17T01:35:53.245Z,12.20
2018-09-17T01:36:53.153Z,12.18
2018-09-17T01:37:53.051Z,12.21
2018-09-17T01:38:52.960Z,12.20
2018-09-17T01:39:52.843Z,12.25
2018-09-17T01:40:52.755Z,12.22
2018-09-17T01:41:52.650Z,12.17
2018-09-17T01:42:52.546Z,12.20
2018-09-17T01:43:52.443Z,12.24
2018-09-17T01:44:52.351Z,12.24
2018-09-17T01:45:52.248Z,12.12
2018-09-17T01:46:52.164Z,12.10
2018-09-17T01:47:52.042Z,12.10
2018-09-17T01:48:51.938Z,12.09
2018-09-17T01:49:51.848Z,12.18
2018-09-17T01:50:51.746Z,12.09
2018-09-17T01:51:51.642Z,12.06
2018-09-17T01:52:51.539Z,11.97
2018-09-17T01:53:51.448Z,12.03
2018-09-17T01:54:51.344Z,12.02
2018-09-17T01:55:51.239Z,12.02
2018-09-17T01:56:51.136Z,12.00
2018-09-17T01:57:51.036Z,12.00
2018-09-17T01:58:50.943Z,11.99
2018-09-17T01:59:50.845Z,11.94
2018-09-17T02:00:50.987Z,11.87
2018-09-17T02:01:50.634Z,11.81
2018-09-17T02:02:50.531Z,11.90
2018-09-17T02:03:50.441Z,11.86
2018-09-17T02:04:50.337Z,11.78
2018-09-17T02:05:50.232Z,11.81
2018-09-17T02:06:50.129Z,11.77
2018-09-17T02:07:50.039Z,11.73
2018-09-17T02:08:49.994Z,11.83
2018-09-17T02:09:49.833Z,11.80
2018-09-17T02:10:49.730Z,11.69
2018-09-17T02:11:49.625Z,11.75
2018-09-17T02:12:49.534Z,11.70
2018-09-17T02:13:49.430Z,11.69
2018-09-17T02:14:49.327Z,11.73
2018-09-17T02:15:49.224Z,11.70
2018-09-17T02:16:49.134Z,11.77
2018-09-17T02:17:49.032Z,11.70
2018-09-17T02:18:48.928Z,11.63
2018-09-17T02:19:48.829Z,11.62
2018-09-17T02:20:49.021Z,11.57
2018-09-17T02:21:48.629Z,11.51
2018-09-17T02:22:48.527Z,11.69
2018-09-17T02:23:48.429Z,11.66
2018-09-17T02:24:48.319Z,11.70
2018-09-17T02:25:48.220Z,11.54
2018-09-17T02:26:48.113Z,11.68
2018-09-17T02:27:48.023Z,11.51
2018-09-17T02:28:47.920Z,11.47
2018-09-17T02:29:47.816Z,11.45
2018-09-17T02:30:47.714Z,11.48
2018-09-17T02:31:47.612Z,11.45
2018-09-17T02:32:47.518Z,11.47
2018-09-17T02:33:47.414Z,11.48
2018-09-17T02:34:47.313Z,11.45
2018-09-17T02:35:47.211Z,11.50
2018-09-17T02:36:47.107Z,11.36
2018-09-17T02:37:47.020Z,11.37
2018-09-17T02:38:46.911Z,11.40
2018-09-17T02:39:46.810Z,11.36
2018-09-17T02:40:47.009Z,11.35
2018-09-17T02:41:46.602Z,11.35
2018-09-17T02:42:46.512Z,11.30
2018-09-17T02:43:46.407Z,11.23
2018-09-17T02:44:46.304Z,11.30
2018-09-17T02:45:46.200Z,11.27
2018-09-17T02:46:46.097Z,11.27
2018-09-17T02:47:45.995Z,11.26
2018-09-17T02:48:45.904Z,11.23
2018-09-17T02:49:45.800Z,11.18
2018-09-17T02:50:45.696Z,11.14
2018-09-17T02:51:45.594Z,11.23
2018-09-17T02:52:45.490Z,11.15
2018-09-17T02:53:45.441Z,11.12
2018-09-17T02:54:45.295Z,11.17
2018-09-17T02:55:45.195Z,11.12
2018-09-17T02:56:45.089Z,11.15
2018-09-17T02:57:44.986Z,11.14
2018-09-17T02:58:44.884Z,11.10
2018-09-17T02:59:44.792Z,11.15
2018-09-17T03:00:44.689Z,11.10
2018-09-17T03:01:44.587Z,11.04
2018-09-17T03:02:44.482Z,11.18
2018-09-17T03:03:44.380Z,11.08
2018-09-17T03:04:44.287Z,11.08
2018-09-17T03:05:44.184Z,11.07
2018-09-17T03:06:44.082Z,11.08
2018-09-17T03:07:43.994Z,11.04
2018-09-17T03:08:43.875Z,11.02
2018-09-17T03:09:43.772Z,10.99
2018-09-17T03:10:43.669Z,10.90
2018-09-17T03:11:43.581Z,10.90
2018-09-17T03:12:43.475Z,10.92
2018-09-17T03:13:43.370Z,10.92
2018-09-17T03:14:43.272Z,10.93
2018-09-17T03:15:43.164Z,10.99
2018-09-17T03:16:43.073Z,10.93
2018-09-17T03:17:42.969Z,10.86
2018-09-17T03:18:42.866Z,10.94
2018-09-17T03:19:42.764Z,10.96
2018-09-17T03:20:42.659Z,10.92
2018-09-17T03:21:42.559Z,10.96
2018-09-17T03:22:42.454Z,10.90
2018-09-17T03:23:42.365Z,11.00
2018-09-17T03:24:42.259Z,10.94
2018-09-17T03:25:42.156Z,10.90
2018-09-17T03:26:42.053Z,10.89
2018-09-17T03:27:41.950Z,10.97
2018-09-17T03:28:41.865Z,11.04
2018-09-17T03:29:41.754Z,10.94
2018-09-17T03:30:41.651Z,11.00
2018-09-17T03:31:41.548Z,10.97
2018-09-17T03:32:41.445Z,11.00
2018-09-17T03:33:41.345Z,11.02
2018-09-17T03:34:41.239Z,11.00
2018-09-17T03:35:41.151Z,10.99
2018-09-17T03:36:41.044Z,10.99
2018-09-17T03:37:40.942Z,10.96
2018-09-17T03:38:40.838Z,10.99
2018-09-17T03:39:40.736Z,10.90
2018-09-17T03:40:40.631Z,10.99
2018-09-17T03:41:40.540Z,10.93
2018-09-17T03:42:40.436Z,10.93
2018-09-17T03:43:40.334Z,10.90
2018-09-17T03:44:40.242Z,10.89
2018-09-17T03:45:40.127Z,10.90
2018-09-17T03:46:40.087Z,10.87
2018-09-17T03:47:39.920Z,10.79
2018-09-17T03:48:39.830Z,10.84
2018-09-17T03:49:39.727Z,10.84
2018-09-17T03:50:39.623Z,10.76
2018-09-17T03:51:39.521Z,10.84
2018-09-17T03:52:39.417Z,10.76
2018-09-17T03:53:39.313Z,10.79
2018-09-17T03:54:39.211Z,10.84
2018-09-17T03:55:39.118Z,10.78
2018-09-17T03:56:39.016Z,10.81
2018-09-17T03:57:38.913Z,10.76
2018-09-17T03:58:38.809Z,10.67
2018-09-17T03:59:38.705Z,10.81
2018-09-17T04:00:38.602Z,10.74
2018-09-17T04:01:38.511Z,10.74
2018-09-17T04:02:38.409Z,10.72
2018-09-17T04:03:38.305Z,10.74
2018-09-17T04:04:38.204Z,10.74
2018-09-17T04:05:38.098Z,10.72
2018-09-17T04:06:37.995Z,10.76
2018-09-17T04:07:37.894Z,10.76
2018-09-17T04:08:37.800Z,10.67
2018-09-17T04:09:37.698Z,10.60
2018-09-17T04:10:37.596Z,10.69
2018-09-17T04:11:37.490Z,10.60
2018-09-17T04:12:37.388Z,10.64
2018-09-17T04:13:37.331Z,10.72
2018-09-17T04:14:37.183Z,10.71
2018-09-17T04:15:37.091Z,10.64
2018-09-17T04:16:36.987Z,10.61
2018-09-17T04:17:36.884Z,10.68
2018-09-17T04:18:36.781Z,10.60
2018-09-17T04:19:36.678Z,10.68
2018-09-17T04:20:36.574Z,10.71
2018-09-17T04:21:36.471Z,10.69
2018-09-17T04:22:36.379Z,10.72
2018-09-17T04:23:36.276Z,10.71
2018-09-17T04:24:36.172Z,10.67
2018-09-17T04:25:36.073Z,10.68
2018-09-17T04:26:35.966Z,10.61
2018-09-17T04:27:35.863Z,10.64
2018-09-17T04:28:35.781Z,10.64
2018-09-17T04:29:35.661Z,10.64
2018-09-17T04:30:35.566Z,10.63
2018-09-17T04:31:35.475Z,10.67
2018-09-17T04:32:35.360Z,10.74
2018-09-17T04:33:35.256Z,10.60
2018-09-17T04:34:35.155Z,10.57
2018-09-17T04:35:35.057Z,10.60
2018-09-17T04:36:34.947Z,10.63
2018-09-17T04:37:34.855Z,10.56
2018-09-17T04:38:34.751Z,10.61
2018-09-17T04:39:34.650Z,10.59
2018-09-17T04:40:34.545Z,10.74
2018-09-17T04:41:34.440Z,10.63
2018-09-17T04:42:34.338Z,10.72
2018-09-17T04:43:34.236Z,10.75
2018-09-17T04:44:34.133Z,10.82
2018-09-17T04:45:34.041Z,10.86
2018-09-17T04:46:33.939Z,10.87
2018-09-17T04:47:33.835Z,10.93
2018-09-17T04:48:33.732Z,10.92
2018-09-17T04:49:33.629Z,10.92
2018-09-17T04:50:33.525Z,10.96
2018-09-17T04:51:33.447Z,10.92
2018-09-17T04:52:33.330Z,11.04
2018-09-17T04:53:33.228Z,11.08
2018-09-17T04:54:33.123Z,11.08
2018-09-17T04:55:33.020Z,10.99
2018-09-17T04:56:32.917Z,11.07
2018-09-17T04:57:32.817Z,11.23
2018-09-17T04:58:32.711Z,11.27
2018-09-17T04:59:32.620Z,11.27
2018-09-17T05:00:32.517Z,11.27
2018-09-17T05:01:32.413Z,11.30
2018-09-17T05:02:32.310Z,11.36
2018-09-17T05:03:32.207Z,11.36
2018-09-17T05:04:32.115Z,11.50
2018-09-17T05:05:32.012Z,11.69
2018-09-17T05:06:31.909Z,11.80
2018-09-17T05:07:31.807Z,12.03
2018-09-17T05:08:31.702Z,12.06
2018-09-17T05:09:31.613Z,12.09
2018-09-17T05:10:31.795Z,12.09
2018-09-17T05:11:31.394Z,12.20
2018-09-17T05:12:31.303Z,12.37
2018-09-17T05:13:31.388Z,12.32
2018-09-17T05:14:31.096Z,12.39
2018-09-17T05:15:30.993Z,12.45
2018-09-17T05:16:30.890Z,12.47
2018-09-17T05:17:30.797Z,12.64
2018-09-17T05:18:30.707Z,12.94
2018-09-17T05:19:30.591Z,13.31
2018-09-17T05:20:30.792Z,13.59
2018-09-17T05:21:30.386Z,13.87
2018-09-17T05:22:30.296Z,14.18
2018-09-17T05:23:30.191Z,14.36
2018-09-17T05:24:30.088Z,14.62
2018-09-17T05:25:29.984Z,14.77
2018-09-17T05:26:29.894Z,14.92
2018-09-17T05:27:29.790Z,15.17
2018-09-17T05:28:29.687Z,15.28
2018-09-17T05:29:29.583Z,15.51
2018-09-17T05:30:29.499Z,15.68
2018-09-17T05:31:29.390Z,15.79
2018-09-17T05:32:29.286Z,16.01
2018-09-17T05:33:29.195Z,16.10
2018-09-17T05:34:29.092Z,16.21
2018-09-17T05:35:28.989Z,16.35
2018-09-17T05:36:28.898Z,16.33
2018-09-17T05:37:28.795Z,16.42
2018-09-17T05:38:28.692Z,16.56
2018-09-17T05:39:28.588Z,16.58
2018-09-17T05:40:28.796Z,16.68
2018-09-17T05:41:28.396Z,16.91
2018-09-17T05:42:28.290Z,17.20
2018-09-17T05:43:28.200Z,17.15
2018-09-17T05:44:28.155Z,17.39
2018-09-17T05:45:28.005Z,17.49
2018-09-17T05:46:27.916Z,17.46
2018-09-17T05:47:27.812Z,17.68
2018-09-17T05:48:27.710Z,17.74
2018-09-17T05:49:27.606Z,17.90
2018-09-17T05:50:27.503Z,17.95
2018-09-17T05:51:27.410Z,18.04
2018-09-17T05:52:27.307Z,18.13
2018-09-17T05:53:27.217Z,18.05
2018-09-17T05:54:27.114Z,18.11
2018-09-17T05:55:27.035Z,18.16
2018-09-17T05:56:26.919Z,18.25
2018-09-17T05:57:26.818Z,18.43
2018-09-17T05:58:26.728Z,18.49
2018-09-17T05:59:26.674Z,18.71
2018-09-17T06:00:26.532Z,18.71
2018-09-17T06:01:26.430Z,18.81
2018-09-17T06:02:26.338Z,18.89
2018-09-17T06:03:26.235Z,18.96
2018-09-17T06:04:26.143Z,18.99
2018-09-17T06:05:26.062Z,19.18
2018-09-17T06:06:25.950Z,19.41
2018-09-17T06:07:25.846Z,19.37
2018-09-17T06:08:25.754Z,19.52
2018-09-17T06:09:25.652Z,19.64
2018-09-17T06:10:25.562Z,19.79
2018-09-17T06:11:25.459Z,19.99
2018-09-17T06:12:25.366Z,20.06
2018-09-17T06:13:25.276Z,20.21
2018-09-17T06:14:25.191Z,20.28
2018-09-17T06:15:25.073Z,20.29
2018-09-17T06:16:24.978Z,20.51
2018-09-17T06:17:24.923Z,20.51
2018-09-17T06:18:24.785Z,20.67
2018-09-17T06:19:24.694Z,20.75
2018-09-17T06:20:24.603Z,20.75
2018-09-17T06:21:24.500Z,20.77
2018-09-17T06:22:24.408Z,20.72
2018-09-17T06:23:24.356Z,20.63
2018-09-17T06:24:24.217Z,20.70
2018-09-17T06:25:24.123Z,21.00
2018-09-17T06:26:24.042Z,21.11
2018-09-17T06:27:23.931Z,21.33
2018-09-17T06:28:23.838Z,21.40
2018-09-17T06:29:23.734Z,21.37
2018-09-17T06:30:23.645Z,21.45
2018-09-17T06:31:23.556Z,21.58
2018-09-17T06:32:23.450Z,21.66
2018-09-17T06:33:23.360Z,21.82
2018-09-17T06:34:23.267Z,21.99
2018-09-17T06:35:23.164Z,22.18
2018-09-17T06:36:23.195Z,22.22
2018-09-17T06:37:22.983Z,22.30
2018-09-17T06:38:22.880Z,22.17
2018-09-17T06:39:22.790Z,22.22
2018-09-17T06:40:22.701Z,22.39
2018-09-17T06:41:22.610Z,22.54
2018-09-17T06:42:22.505Z,22.62
2018-09-17T06:43:22.414Z,22.73
2018-09-17T06:44:22.323Z,22.69
2018-09-17T06:45:22.220Z,22.75
2018-09-17T06:46:22.128Z,22.68
2018-09-17T06:47:22.039Z,22.55
2018-09-17T06:48:21.947Z,22.75
2018-09-17T06:49:21.844Z,22.62
2018-09-17T06:50:21.758Z,22.91
2018-09-17T06:51:21.706Z,22.81
2018-09-17T06:52:21.572Z,22.91
2018-09-17T06:53:21.480Z,22.83
2018-09-17T06:54:21.377Z,22.98
2018-09-17T06:55:21.287Z,23.06
2018-09-17T06:56:21.195Z,23.09
2018-09-17T06:57:21.112Z,23.15
2018-09-17T06:58:21.002Z,23.15
2018-09-17T06:59:20.910Z,23.18
2018-09-17T07:00:21.070Z,23.00
2018-09-17T07:01:20.729Z,22.73
2018-09-17T07:02:20.627Z,22.38
2018-09-17T07:03:20.536Z,21.95
2018-09-17T07:04:20.444Z,21.45
2018-09-17T07:05:20.353Z,20.99
2018-09-17T07:06:20.306Z,20.39
2018-09-17T07:07:20.173Z,20.19
2018-09-17T07:08:20.070Z,19.91
2018-09-17T07:09:19.979Z,19.74
2018-09-17T07:10:19.875Z,19.52
2018-09-17T07:11:19.783Z,19.47
2018-09-17T07:12:19.695Z,19.33
2018-09-17T07:13:19.602Z,19.29
2018-09-17T07:14:19.499Z,19.19
2018-09-17T07:15:19.414Z,19.02
2018-09-17T07:16:19.321Z,19.02
2018-09-17T07:17:19.227Z,19.04
2018-09-17T07:18:19.125Z,19.00
2018-09-17T07:19:19.038Z,19.11
2018-09-17T07:20:18.976Z,19.14
2018-09-17T07:21:18.838Z,18.98
2018-09-17T07:22:18.736Z,18.99
2018-09-17T07:23:18.644Z,19.02
2018-09-17T07:24:18.553Z,18.99
2018-09-17T07:25:18.500Z,19.02
2018-09-17T07:26:18.360Z,19.02
2018-09-17T07:27:18.269Z,19.18
2018-09-17T07:28:18.164Z,19.16
2018-09-17T07:29:18.075Z,19.33
2018-09-17T07:30:17.971Z,19.30
2018-09-17T07:31:17.881Z,19.40
2018-09-17T07:32:17.790Z,19.39
2018-09-17T07:33:17.686Z,19.47
2018-09-17T07:34:17.597Z,19.52
2018-09-17T07:35:17.493Z,19.73
2018-09-17T07:36:17.470Z,19.81
2018-09-17T07:37:17.311Z,19.88
2018-09-17T07:38:17.220Z,19.99
2018-09-17T07:39:17.120Z,19.96
2018-09-17T07:40:17.015Z,20.13
2018-09-17T07:41:16.922Z,20.14
2018-09-17T07:42:16.833Z,20.21
2018-09-17T07:43:16.730Z,20.37
2018-09-17T07:44:16.637Z,20.44
2018-09-17T07:45:16.536Z,20.56
2018-09-17T07:46:16.444Z,20.67
2018-09-17T07:47:16.352Z,20.72
2018-09-17T07:48:16.249Z,20.88
2018-09-17T07:49:16.158Z,20.80
2018-09-17T07:50:16.067Z,20.97
2018-09-17T07:51:15.963Z,21.00
2018-09-17T07:52:15.873Z,20.97
2018-09-17T07:53:15.828Z,21.06
2018-09-17T07:54:15.683Z,21.20
2018-09-17T07:55:15.589Z,21.32
2018-09-17T07:56:15.485Z,21.35
2018-09-17T07:57:15.393Z,21.45
2018-09-17T07:58:15.304Z,21.61
2018-09-17T07:59:15.200Z,21.66
2018-09-17T08:00:15.109Z,21.70
2018-09-17T08:01:15.019Z,21.76
2018-09-17T08:02:14.915Z,21.82
2018-09-17T08:03:14.824Z,21.82
2018-09-17T08:04:14.721Z,21.89
2018-09-17T08:05:14.632Z,21.98
2018-09-17T08:06:14.539Z,21.98
2018-09-17T08:07:14.436Z,22.08
2018-09-17T08:08:14.349Z,22.18
2018-09-17T08:09:14.254Z,22.26
2018-09-17T08:10:14.150Z,22.36
2018-09-17T08:11:14.062Z,22.47
2018-09-17T08:12:13.969Z,22.44
2018-09-17T08:13:13.866Z,22.47
2018-09-17T08:14:13.776Z,22.54
2018-09-17T08:15:13.684Z,22.53
2018-09-17T08:16:13.581Z,22.73
2018-09-17T08:17:13.499Z,22.62
2018-09-17T08:18:13.399Z,22.80
2018-09-17T08:19:13.297Z,22.81
2018-09-17T08:20:13.217Z,22.70
2018-09-17T08:21:13.114Z,22.73
2018-09-17T08:22:13.013Z,22.78
2018-09-17T08:23:12.921Z,22.88
2018-09-17T08:24:12.829Z,23.00
2018-09-17T08:25:12.741Z,23.06
2018-09-17T08:26:12.640Z,23.08
2018-09-17T08:27:12.544Z,23.17
2018-09-17T08:28:12.454Z,23.36
2018-09-17T08:29:12.352Z,23.41
2018-09-17T08:30:12.262Z,23.50
2018-09-17T08:31:12.221Z,23.56
2018-09-17T08:32:12.078Z,23.80
2018-09-17T08:33:11.975Z,23.81
2018-09-17T08:34:11.884Z,23.92
2018-09-17T08:35:11.793Z,23.96
2018-09-17T08:36:11.702Z,23.99
2018-09-17T08:37:11.601Z,24.03
2018-09-17T08:38:11.537Z,24.03
2018-09-17T08:39:11.418Z,23.98
2018-09-17T08:40:11.328Z,24.02
2018-09-17T08:41:11.223Z,24.21
2018-09-17T08:42:11.134Z,24.24
2018-09-17T08:43:11.041Z,24.42
2018-09-17T08:44:10.952Z,24.45
2018-09-17T08:45:10.848Z,24.54
2018-09-17T08:46:10.756Z,24.54
2018-09-17T08:47:10.666Z,24.51
2018-09-17T08:48:10.575Z,24.63
2018-09-17T08:49:10.485Z,24.69
2018-09-17T08:50:10.382Z,24.76
2018-09-17T08:51:10.292Z,24.84
2018-09-17T08:52:10.231Z,24.84
2018-09-17T08:53:10.163Z,24.92
2018-09-17T08:54:10.018Z,24.93
2018-09-17T08:55:09.915Z,25.10
2018-09-17T08:56:09.836Z,25.07
2018-09-17T08:57:09.733Z,25.01
2018-09-17T08:58:09.666Z,25.11
2018-09-17T08:59:09.555Z,25.14
2018-09-17T09:00:09.460Z,25.26
2018-09-17T09:01:09.358Z,25.32
2018-09-17T09:02:09.266Z,25.46
2018-09-17T09:03:09.175Z,25.35
2018-09-17T09:04:09.089Z,25.46
2018-09-17T09:05:09.026Z,25.53
2018-09-17T09:06:08.906Z,25.47
2018-09-17T09:07:08.812Z,25.40
2018-09-17T09:08:08.709Z,25.53
2018-09-17T09:09:08.619Z,25.36
2018-09-17T09:10:08.527Z,25.59
2018-09-17T09:11:08.438Z,25.62
2018-09-17T09:12:08.345Z,25.72
2018-09-17T09:13:08.255Z,25.75
2018-09-17T09:14:08.164Z,25.72
2018-09-17T09:15:08.063Z,25.69
2018-09-17T09:16:07.971Z,25.68
2018-09-17T09:17:07.878Z,25.70
2018-09-17T09:18:07.789Z,25.72
2018-09-17T09:19:07.699Z,25.78
2018-09-17T09:20:07.607Z,25.66
2018-09-17T09:21:07.515Z,25.62
2018-09-17T09:22:07.428Z,25.47
2018-09-17T09:23:07.336Z,25.28
2018-09-17T09:24:07.243Z,25.10
2018-09-17T09:25:07.142Z,25.22
2018-09-17T09:26:07.095Z,25.36
2018-09-17T09:27:06.960Z,25.11
2018-09-17T09:28:06.868Z,25.22
2018-09-17T09:29:06.778Z,25.18
2018-09-17T09:30:06.686Z,25.14
2018-09-17T09:31:06.596Z,25.31
2018-09-17T09:32:06.505Z,25.40
2018-09-17T09:33:06.414Z,25.50
2018-09-17T09:34:06.322Z,25.50
2018-09-17T09:35:06.221Z,25.63
2018-09-17T09:36:06.131Z,25.60
2018-09-17T09:37:06.039Z,25.68
2018-09-17T09:38:05.953Z,25.83
2018-09-17T09:39:05.856Z,25.73
2018-09-17T09:40:05.766Z,25.62
2018-09-17T09:41:05.677Z,25.32
2018-09-17T09:42:05.587Z,25.50
2018-09-17T09:43:05.494Z,25.28
2018-09-17T09:44:05.406Z,25.07
2018-09-17T09:45:05.314Z,25.36
2018-09-17T09:46:05.210Z,25.50
2018-09-17T09:47:05.118Z,25.59
2018-09-17T09:48:05.028Z,25.62
2018-09-17T09:49:04.937Z,25.63
2018-09-17T09:50:04.845Z,25.75
2018-09-17T09:51:04.755Z,25.83
2018-09-17T09:52:04.663Z,25.73
2018-09-17T09:53:04.575Z,25.81
2018-09-17T09:54:04.482Z,25.93
2018-09-17T09:55:04.391Z,25.80
2018-09-17T09:56:04.301Z,25.78
2018-09-17T09:57:04.198Z,25.83
2018-09-17T09:58:04.107Z,25.63
2018-09-17T09:59:04.017Z,25.47
2018-09-17T10:00:03.926Z,25.69
2018-09-17T10:01:03.834Z,25.47
2018-09-17T10:02:03.746Z,25.36
2018-09-17T10:03:03.652Z,25.46
2018-09-17T10:04:03.563Z,25.47
2018-09-17T10:05:03.470Z,25.44
2018-09-17T10:06:03.368Z,25.26
2018-09-17T10:07:03.290Z,25.26
2018-09-17T10:08:03.185Z,25.28
2018-09-17T10:09:03.095Z,25.26
2018-09-17T10:10:03.003Z,25.36
2018-09-17T10:11:02.914Z,25.48
2018-09-17T10:12:02.824Z,25.28
2018-09-17T10:13:02.732Z,25.25
2018-09-17T10:14:02.641Z,25.22
2018-09-17T10:15:02.539Z,25.38
2018-09-17T10:16:02.449Z,25.50
2018-09-17T10:17:02.356Z,25.59
2018-09-17T10:18:02.268Z,25.66
2018-09-17T10:19:02.174Z,25.65
2018-09-17T10:20:02.085Z,25.65
2018-09-17T10:21:01.993Z,25.81
2018-09-17T10:22:01.902Z,25.78
2018-09-17T10:23:01.810Z,25.80
2018-09-17T10:24:01.709Z,25.84
2018-09-17T10:25:01.619Z,25.83
2018-09-17T10:26:01.527Z,25.83
2018-09-17T10:27:01.436Z,25.80
2018-09-17T10:28:01.343Z,25.93
2018-09-17T10:29:01.254Z,25.99
2018-09-17T10:30:01.235Z,26.00
2018-09-17T10:31:01.061Z,26.07
2018-09-17T10:32:00.969Z,26.15
2018-09-17T10:33:00.881Z,26.02
2018-09-17T10:34:00.788Z,26.19
2018-09-17T10:35:00.696Z,26.22
2018-09-17T10:36:00.605Z,26.33
2018-09-17T10:37:00.515Z,26.40
2018-09-17T10:38:00.425Z,26.48
2018-09-17T10:39:00.322Z,26.51
2018-09-17T10:40:00.236Z,26.52
2018-09-17T10:41:00.139Z,26.65
2018-09-17T10:42:00.048Z,26.53
2018-09-17T10:42:59.959Z,26.47
2018-09-17T10:43:59.866Z,26.55
2018-09-17T10:44:59.777Z,26.53
2018-09-17T10:45:59.685Z,26.33
2018-09-17T10:46:59.619Z,26.23
2018-09-17T10:47:59.491Z,26.07
2018-09-17T10:48:59.400Z,26.21
2018-09-17T10:49:59.310Z,26.13
2018-09-17T10:50:59.217Z,26.16
2018-09-17T10:51:59.128Z,26.13
2018-09-17T10:52:59.036Z,26.16
2018-09-17T10:53:58.947Z,26.22
2018-09-17T10:54:58.854Z,26.23
2018-09-17T10:55:58.766Z,26.23
2018-09-17T10:56:58.662Z,26.26
2018-09-17T10:57:58.572Z,26.29
2018-09-17T10:58:58.480Z,26.28
2018-09-17T10:59:58.388Z,26.26
2018-09-17T11:00:58.299Z,26.31
2018-09-17T11:01:58.210Z,26.29
2018-09-17T11:02:58.117Z,26.28
2018-09-17T11:03:58.026Z,26.33
2018-09-17T11:04:57.935Z,26.36
2018-09-17T11:05:57.832Z,26.25
2018-09-17T11:06:57.742Z,26.40
2018-09-17T11:07:57.651Z,26.38
2018-09-17T11:08:57.558Z,26.38
2018-09-17T11:09:57.469Z,26.33
2018-09-17T11:10:57.383Z,26.36
2018-09-17T11:11:57.287Z,26.37
2018-09-17T11:12:57.194Z,26.31
2018-09-17T11:13:57.093Z,26.37
2018-09-17T11:14:57.006Z,26.40
2018-09-17T11:15:56.916Z,26.36
2018-09-17T11:16:56.820Z,26.43
2018-09-17T11:17:56.742Z,26.45
2018-09-17T11:18:56.639Z,26.38
2018-09-17T11:19:56.547Z,26.23
2018-09-17T11:20:56.457Z,26.28
2018-09-17T11:21:56.355Z,26.23
2018-09-17T11:22:56.262Z,26.29
2018-09-17T11:23:56.172Z,26.23
2018-09-17T11:24:56.081Z,26.31
2018-09-17T11:25:55.991Z,26.23
2018-09-17T11:26:55.899Z,26.26
2018-09-17T11:27:55.809Z,26.28
2018-09-17T11:28:55.717Z,26.28
2018-09-17T11:29:55.614Z,26.22
2018-09-17T11:30:55.524Z,26.06
2018-09-17T11:31:55.433Z,26.22
2018-09-17T11:32:55.343Z,26.18
2018-09-17T11:33:55.251Z,26.23
2018-09-17T11:34:55.162Z,26.15
2018-09-17T11:35:55.069Z,26.33
2018-09-17T11:36:54.967Z,26.22
2018-09-17T11:37:54.875Z,26.28
2018-09-17T11:38:54.784Z,26.21
2018-09-17T11:39:54.696Z,26.23
2018-09-17T11:40:54.602Z,26.28
2018-09-17T11:41:54.512Z,26.34
2018-09-17T11:42:54.421Z,26.33
2018-09-17T11:43:54.318Z,26.38
2018-09-17T11:44:54.227Z,26.43
2018-09-17T11:45:54.135Z,26.41
2018-09-17T11:46:54.066Z,26.41
2018-09-17T11:47:53.957Z,26.41
2018-09-17T11:48:53.864Z,26.51
2018-09-17T11:49:53.762Z,26.48
2018-09-17T11:50:53.670Z,26.48
2018-09-17T11:51:53.582Z,26.51
2018-09-17T11:52:53.502Z,26.60
2018-09-17T11:53:53.458Z,26.55
2018-09-17T11:54:53.306Z,26.58
2018-09-17T11:55:53.218Z,26.58
2018-09-17T11:56:53.113Z,26.70
2018-09-17T11:57:53.022Z,26.78
2018-09-17T11:58:52.932Z,26.65
2018-09-17T11:59:52.840Z,26.75
2018-09-17T12:00:52.750Z,26.78
2018-09-17T12:01:52.680Z,26.75
2018-09-17T12:02:52.568Z,26.81
2018-09-17T12:03:52.465Z,26.81
2018-09-17T12:04:52.381Z,26.78
2018-09-17T12:05:52.285Z,26.80
2018-09-17T12:06:52.192Z,26.78
2018-09-17T12:07:52.102Z,26.77
2018-09-17T12:08:52.010Z,26.80
2018-09-17T12:09:51.921Z,26.68
2018-09-17T12:10:51.817Z,26.55
2018-09-17T12:11:51.729Z,26.68
2018-09-17T12:12:51.634Z,26.68
2018-09-17T12:13:51.544Z,26.71
2018-09-17T12:14:51.455Z,26.80
2018-09-17T12:15:51.362Z,26.81
2018-09-17T12:16:51.275Z,26.84
2018-09-17T12:17:51.171Z,26.83
2018-09-17T12:18:51.077Z,26.83
2018-09-17T12:19:50.988Z,26.95
2018-09-17T12:20:50.897Z,26.93
2018-09-17T12:21:50.810Z,26.90
2018-09-17T12:22:50.714Z,26.95
2018-09-17T12:23:50.632Z,27.02
2018-09-17T12:24:50.532Z,27.12
2018-09-17T12:25:50.430Z,27.15
2018-09-17T12:26:50.340Z,27.14
2018-09-17T12:27:50.249Z,27.27
2018-09-17T12:28:50.158Z,27.37
2018-09-17T12:29:50.068Z,27.37
2018-09-17T12:30:49.975Z,27.37
2018-09-17T12:31:49.886Z,27.44
2018-09-17T12:32:49.797Z,27.48
2018-09-17T12:33:49.738Z,27.48
2018-09-17T12:34:49.601Z,27.51
2018-09-17T12:35:49.510Z,27.44
2018-09-17T12:36:49.418Z,27.44
2018-09-17T12:37:49.329Z,27.47
2018-09-17T12:38:49.236Z,27.49
2018-09-17T12:39:49.149Z,27.45
2018-09-17T12:40:49.055Z,27.55
2018-09-17T12:41:48.965Z,27.67
2018-09-17T12:42:48.873Z,27.73
2018-09-17T12:43:48.783Z,27.68
2018-09-17T12:44:48.691Z,27.70
2018-09-17T12:45:48.593Z,27.75
2018-09-17T12:46:48.499Z,27.83
2018-09-17T12:47:48.408Z,27.93
2018-09-17T12:48:48.317Z,27.85
2018-09-17T12:49:48.225Z,28.00
2018-09-17T12:50:48.140Z,28.07